Huvudsida
METAR-TAF:

METAR-TAF

Flygplatser :

Kuwait, Kuwait

Kuwaits internationella flygplats

latitud: 29-13N, longitud: 047-59E, höjd: 55 m

Aktuellt väderrapport

Denna rapport gjordes för 1 timme och 0 minuter sedan, klockan 00:00 UTC
Vind 12 kt från nord/nordväst
Temperatur 17°C
Fuktighet 32%
Tryck 1016 hPa
Sikt: 0500 m
torrdis

METAR: OKBK 200000Z 33012KT 0500 R15R/M0025N R33L/M0025N R15L/1200N R33R/1200N HZ NSC 17/M00 Q1016 NOSIG

Tid: 04:00 (01:00 UTC)

Väderprognos

Denna rapport gjordes för 2 timmar och 15 minuter sedan, klockan 22:45 UTC
Prognos gäller från 20 kl. 00 UTC till 21 kl. 06 UTC
Vind 12 kt från nord/nordväst i byarna ända upp till 25 kt
Sikt: 2000 m
högt damm drev
Temporärt
från 20 kl. 00 UTC till 20 kl. 04 UTC
Sikt: 0500 m

TAF: OKBK 192245Z 2000/2106 34012G25KT 2000 BLDU NSC TEMPO 2000/2004 0500 DS

Aktuella väderrapporter och prognoser från 4000 flygplatser (METAR- och TAF-rapporter).

De tillgängliga stationerna syns som gula och röda prickar på kartan.

För musen över prickarna för att se namnen på stationerna.

Klicka sedan för att få väderrapporter och prognoser.

För att ändra kartan: Klicka på de gröna knapparna med ett svart kors på för att zooma in; den gröna knappen med ett streck på för att zooma ut; eller på de gröna pilarna för angränsande kartor.


METAR-TAF: